createdAt,value
2023-04-20T00:00:22.261Z,377.13
2023-04-20T00:03:28.978Z,367.21
2023-04-20T00:06:38.590Z,370.63
2023-04-20T00:09:44.440Z,375.55
2023-04-20T00:12:51.293Z,360.48
2023-04-20T00:15:57.281Z,345.43
2023-04-20T00:19:04.201Z,348.51
2023-04-20T00:22:12.694Z,363.22
2023-04-20T00:25:19.788Z,373.29
2023-04-20T00:28:25.778Z,376.25
2023-04-20T00:31:32.582Z,383.26
2023-04-20T00:34:38.584Z,396.74
2023-04-20T00:37:52.761Z,382.96
2023-04-20T00:40:59.059Z,382.14
2023-04-20T00:44:07.023Z,381.50
2023-04-20T00:47:13.129Z,379.53
2023-04-20T00:50:20.803Z,368.76
2023-04-20T00:53:29.404Z,378.38
2023-04-20T00:56:36.367Z,381.52
2023-04-20T00:59:56.475Z,397.50
2023-04-20T01:03:03.497Z,381.81
2023-04-20T01:06:11.316Z,383.11
2023-04-20T01:09:20.717Z,377.81
2023-04-20T01:12:26.675Z,381.99
2023-04-20T01:15:34.497Z,375.43
2023-04-20T01:18:48.702Z,418.68
2023-04-20T01:21:55.852Z,456.87
2023-04-20T01:25:16.820Z,393.38
2023-04-20T01:28:27.762Z,397.23
2023-04-20T01:31:34.126Z,399.29
2023-04-20T01:34:42.093Z,392.79
2023-04-20T01:37:50.161Z,392.02
2023-04-20T01:40:59.835Z,373.00
2023-04-20T01:44:06.823Z,378.51
2023-04-20T01:47:14.500Z,364.17
2023-04-20T01:50:20.711Z,374.62
2023-04-20T01:53:28.230Z,382.53
2023-04-20T01:56:36.711Z,380.79
2023-04-20T01:59:43.657Z,375.80
2023-04-20T02:02:51.648Z,367.04
2023-04-20T02:05:58.597Z,372.64
2023-04-20T02:09:09.511Z,374.26
2023-04-20T02:12:19.015Z,375.79
2023-04-20T02:15:27.027Z,387.26
2023-04-20T02:18:39.871Z,380.37
2023-04-20T02:21:45.902Z,377.40
2023-04-20T02:24:52.910Z,374.19
2023-04-20T02:28:01.432Z,376.32
2023-04-20T02:31:08.577Z,370.90
2023-04-20T02:34:14.584Z,371.93
2023-04-20T02:37:21.420Z,363.99
2023-04-20T02:40:27.566Z,354.21
2023-04-20T02:43:37.251Z,355.60
2023-04-20T02:46:50.090Z,353.41
2023-04-20T02:49:58.380Z,354.14
2023-04-20T02:53:08.834Z,346.76
2023-04-20T02:56:17.339Z,344.48
2023-04-20T02:59:33.030Z,340.79
2023-04-20T03:02:45.777Z,332.52
2023-04-20T03:05:53.078Z,329.70
2023-04-20T03:09:02.070Z,323.55
2023-04-20T03:12:26.917Z,325.32
2023-04-20T03:15:59.103Z,330.75
2023-04-20T03:19:13.955Z,337.92
2023-04-20T03:22:21.037Z,331.05
2023-04-20T03:25:32.876Z,335.43
2023-04-20T03:28:46.267Z,363.57
2023-04-20T03:32:00.639Z,364.33
2023-04-20T03:35:15.363Z,365.49
2023-04-20T03:38:21.519Z,394.39
2023-04-20T03:41:28.448Z,376.61
2023-04-20T03:44:34.316Z,358.18
2023-04-20T03:47:46.524Z,338.90
2023-04-20T03:50:52.651Z,339.14
2023-04-20T03:53:59.384Z,362.89
2023-04-20T03:57:06.387Z,366.21
2023-04-20T04:00:15.540Z,359.90
2023-04-20T04:03:27.297Z,349.47
2023-04-20T04:06:34.512Z,342.31
2023-04-20T04:09:40.385Z,331.79
2023-04-20T04:12:48.391Z,324.77
2023-04-20T04:15:54.698Z,322.36
2023-04-20T04:19:04.735Z,323.45
2023-04-20T04:22:11.855Z,341.89
2023-04-20T04:25:30.100Z,339.58
2023-04-20T04:28:36.278Z,334.25
2023-04-20T04:31:51.417Z,318.64
2023-04-20T04:35:01.655Z,313.24
2023-04-20T04:38:08.615Z,317.50
2023-04-20T04:41:16.388Z,323.39
2023-04-20T04:44:26.334Z,317.65
2023-04-20T04:47:32.798Z,315.36
2023-04-20T04:50:42.431Z,313.13
2023-04-20T04:53:49.930Z,308.00
2023-04-20T04:56:56.739Z,309.22
2023-04-20T05:00:02.739Z,293.31
2023-04-20T05:03:09.876Z,294.32
2023-04-20T05:06:18.777Z,303.05
2023-04-20T05:09:25.914Z,290.96
2023-04-20T05:12:31.819Z,281.78
2023-04-20T05:15:39.008Z,283.35
2023-04-20T05:18:45.142Z,281.56
2023-04-20T05:21:54.808Z,279.60
2023-04-20T05:25:00.828Z,276.86
2023-04-20T05:28:08.039Z,278.12
2023-04-20T05:31:14.090Z,269.61
2023-04-20T05:34:20.946Z,277.04
2023-04-20T05:37:29.746Z,278.15
2023-04-20T05:40:37.656Z,271.89
2023-04-20T05:43:43.618Z,259.44
2023-04-20T05:46:50.764Z,262.89
2023-04-20T05:49:56.635Z,265.59
2023-04-20T05:53:06.193Z,251.77
2023-04-20T05:56:12.282Z,233.69
2023-04-20T05:59:19.990Z,234.51
2023-04-20T06:02:26.633Z,232.40
2023-04-20T06:05:34.279Z,228.76
2023-04-20T06:08:43.042Z,241.41
2023-04-20T06:11:49.820Z,245.29
2023-04-20T06:14:56.079Z,240.42
2023-04-20T06:18:02.954Z,246.40
2023-04-20T06:21:09.180Z,241.21
2023-04-20T06:24:18.571Z,246.98
2023-04-20T06:27:24.591Z,245.03
2023-04-20T06:30:31.322Z,234.74
2023-04-20T06:33:37.392Z,218.12
2023-04-20T06:36:46.566Z,205.16
2023-04-20T06:39:57.621Z,202.75
2023-04-20T06:43:04.510Z,210.57
2023-04-20T06:46:10.508Z,208.32
2023-04-20T06:49:17.637Z,205.79
2023-04-20T06:52:24.336Z,207.02
2023-04-20T06:55:34.102Z,212.00
2023-04-20T06:58:40.222Z,206.08
2023-04-20T07:01:49.898Z,188.01
2023-04-20T07:04:56.018Z,187.67
2023-04-20T07:08:02.950Z,191.70
2023-04-20T07:11:11.751Z,198.02
2023-04-20T07:14:18.536Z,194.64
2023-04-20T07:17:24.894Z,201.09
2023-04-20T07:20:31.833Z,201.40
2023-04-20T07:23:37.877Z,212.72
2023-04-20T07:26:47.427Z,201.62
2023-04-20T07:29:53.274Z,201.52
2023-04-20T07:33:08.959Z,178.71
2023-04-20T07:36:17.264Z,176.62
2023-04-20T07:39:25.780Z,170.67
2023-04-20T07:42:39.767Z,169.19
2023-04-20T07:45:46.700Z,168.70
2023-04-20T07:48:53.004Z,165.80
2023-04-20T07:52:12.981Z,163.17
2023-04-20T07:55:22.900Z,163.89
2023-04-20T07:58:32.270Z,160.79
2023-04-20T08:01:43.568Z,167.26
2023-04-20T08:04:57.329Z,176.18
2023-04-20T08:08:10.528Z,182.09
2023-04-20T08:11:17.354Z,177.50
2023-04-20T08:14:26.740Z,173.25
2023-04-20T08:17:39.984Z,168.62
2023-04-20T08:21:00.096Z,160.02
2023-04-20T08:24:19.108Z,165.48
2023-04-20T08:27:25.134Z,165.10
2023-04-20T08:30:34.811Z,161.78
2023-04-20T08:33:45.057Z,163.49
2023-04-20T08:36:52.229Z,155.43
2023-04-20T08:39:58.145Z,149.01
2023-04-20T08:43:05.007Z,153.51
2023-04-20T08:46:14.013Z,149.68
2023-04-20T08:49:22.601Z,158.70
2023-04-20T08:52:38.988Z,153.49
2023-04-20T08:55:46.121Z,142.07
2023-04-20T08:58:52.679Z,143.30
2023-04-20T09:02:13.987Z,147.76
2023-04-20T09:05:28.290Z,138.65
2023-04-20T09:08:42.916Z,135.98
2023-04-20T09:11:49.786Z,145.20
2023-04-20T09:14:57.345Z,139.95
2023-04-20T09:18:17.870Z,139.60
2023-04-20T09:21:25.192Z,143.46
2023-04-20T09:24:44.310Z,140.07
2023-04-20T09:28:00.272Z,141.93
2023-04-20T09:31:06.359Z,133.70
2023-04-20T09:34:16.852Z,129.96
2023-04-20T09:37:23.218Z,130.13
2023-04-20T09:40:30.360Z,118.78
2023-04-20T09:43:39.375Z,112.86
2023-04-20T09:46:48.341Z,105.02
2023-04-20T09:50:00.148Z,104.58
2023-04-20T09:53:09.550Z,112.73
2023-04-20T09:56:18.562Z,119.87
2023-04-20T09:59:25.510Z,111.87
2023-04-20T10:02:31.820Z,103.85
2023-04-20T10:05:43.158Z,97.36
2023-04-20T10:08:49.403Z,89.63
2023-04-20T10:11:59.593Z,95.92
2023-04-20T10:15:06.054Z,110.02
2023-04-20T10:18:21.205Z,102.23
2023-04-20T10:21:36.997Z,95.89
2023-04-20T10:24:55.549Z,91.73
2023-04-20T10:28:06.426Z,126.55
2023-04-20T10:31:15.802Z,118.61
2023-04-20T10:34:33.123Z,94.78
2023-04-20T10:37:52.305Z,90.47
2023-04-20T10:40:58.431Z,92.76
2023-04-20T10:44:13.366Z,94.45
2023-04-20T10:47:19.574Z,95.35
2023-04-20T10:50:35.618Z,100.73
2023-04-20T10:53:52.732Z,98.99
2023-04-20T10:56:59.522Z,97.64
2023-04-20T11:00:19.587Z,97.97
2023-04-20T11:03:26.636Z,99.04
2023-04-20T11:06:32.911Z,99.62
2023-04-20T11:09:43.315Z,104.45
2023-04-20T11:12:49.233Z,96.18
2023-04-20T11:15:56.149Z,93.55
2023-04-20T11:19:02.107Z,79.43
2023-04-20T11:22:10.086Z,76.35
2023-04-20T11:25:20.408Z,75.44
2023-04-20T11:28:34.821Z,68.97
2023-04-20T11:31:47.123Z,68.57
2023-04-20T11:35:07.194Z,67.84
2023-04-20T11:38:13.653Z,71.39
2023-04-20T11:41:23.530Z,76.37
2023-04-20T11:44:30.212Z,70.16
2023-04-20T11:47:38.181Z,68.02
2023-04-20T11:50:44.273Z,65.27
2023-04-20T11:53:50.981Z,90.51
2023-04-20T11:57:00.410Z,91.11
2023-04-20T12:00:13.454Z,92.97
2023-04-20T12:03:26.142Z,90.84
2023-04-20T12:06:36.505Z,92.98
2023-04-20T12:09:42.496Z,81.41
2023-04-20T12:12:52.468Z,78.45
2023-04-20T12:15:58.463Z,78.49
2023-04-20T12:19:09.323Z,72.61
2023-04-20T12:22:17.809Z,63.42
2023-04-20T12:25:30.835Z,62.86
2023-04-20T12:28:39.881Z,61.75
2023-04-20T12:31:46.829Z,66.21
2023-04-20T12:34:52.943Z,73.12
2023-04-20T12:38:01.603Z,71.10
2023-04-20T12:41:17.814Z,77.85
2023-04-20T12:44:27.440Z,79.97
2023-04-20T12:47:33.574Z,82.56
2023-04-20T12:50:40.440Z,81.92
2023-04-20T12:53:46.712Z,86.32
2023-04-20T12:56:56.421Z,91.43
2023-04-20T13:00:14.451Z,96.78
2023-04-20T13:03:21.670Z,92.85
2023-04-20T13:06:28.276Z,97.97
2023-04-20T13:09:35.000Z,98.04
2023-04-20T13:12:41.078Z,101.70
2023-04-20T13:15:50.482Z,109.86
2023-04-20T13:18:56.736Z,115.83
2023-04-20T13:22:04.151Z,108.26
2023-04-20T13:25:11.482Z,92.34
2023-04-20T13:28:18.452Z,85.68
2023-04-20T13:31:27.072Z,77.75
2023-04-20T13:34:34.016Z,81.14
2023-04-20T13:37:40.020Z,78.12
2023-04-20T13:40:47.024Z,75.63
2023-04-20T13:43:53.546Z,68.95
2023-04-20T13:47:07.899Z,64.18
2023-04-20T13:50:14.642Z,57.65
2023-04-20T13:53:22.247Z,52.96
2023-04-20T13:56:28.281Z,51.48
2023-04-20T13:59:35.226Z,51.52
2023-04-20T14:02:43.925Z,50.42
2023-04-20T14:05:51.892Z,48.81
2023-04-20T14:08:58.243Z,48.27
2023-04-20T14:12:05.185Z,51.78
2023-04-20T14:15:13.687Z,61.81
2023-04-20T14:18:26.624Z,61.69
2023-04-20T14:21:33.045Z,53.96
2023-04-20T14:24:41.039Z,55.00
2023-04-20T14:27:46.939Z,62.28
2023-04-20T14:30:54.250Z,77.69
2023-04-20T14:34:13.457Z,69.87
2023-04-20T14:37:20.498Z,63.26
2023-04-20T14:40:34.496Z,53.86
2023-04-20T14:43:41.539Z,48.00
2023-04-20T14:46:47.654Z,44.01
2023-04-20T14:50:01.504Z,43.65
2023-04-20T14:53:07.647Z,41.47
2023-04-20T14:56:14.510Z,37.73
2023-04-20T14:59:20.623Z,39.02
2023-04-20T15:02:27.547Z,40.70
2023-04-20T15:05:37.458Z,39.01
2023-04-20T15:09:04.976Z,39.30
2023-04-20T15:12:16.556Z,40.41
2023-04-20T15:15:23.392Z,39.36
2023-04-20T15:18:29.437Z,42.36
2023-04-20T15:21:43.484Z,41.52
2023-04-20T15:24:50.627Z,39.46
2023-04-20T15:28:11.644Z,43.68
2023-04-20T15:31:20.629Z,39.12
2023-04-20T15:34:27.402Z,36.15
2023-04-20T15:37:36.184Z,37.02
2023-04-20T15:40:43.051Z,35.02
2023-04-20T15:43:49.199Z,34.98
2023-04-20T15:46:56.465Z,36.43
2023-04-20T15:50:04.519Z,33.17
2023-04-20T15:53:14.094Z,34.37
2023-04-20T15:56:29.157Z,33.72
2023-04-20T15:59:38.337Z,33.06
2023-04-20T16:02:55.124Z,35.06
2023-04-20T16:06:03.581Z,32.74
2023-04-20T16:09:12.125Z,34.68
2023-04-20T16:12:27.139Z,37.23
2023-04-20T16:15:34.064Z,33.75
2023-04-20T16:18:41.194Z,33.14
2023-04-20T16:21:47.216Z,36.38
2023-04-20T16:24:57.049Z,34.85
2023-04-20T16:28:03.705Z,34.73
2023-04-20T16:31:10.761Z,34.04
2023-04-20T16:34:17.550Z,34.51
2023-04-20T16:37:29.579Z,35.95
2023-04-20T16:40:38.180Z,36.33
2023-04-20T16:43:45.133Z,35.09
2023-04-20T16:46:52.986Z,37.50
2023-04-20T16:50:06.203Z,38.48
2023-04-20T16:53:18.430Z,39.65
2023-04-20T16:56:27.835Z,38.97
2023-04-20T16:59:33.936Z,39.52
2023-04-20T17:02:47.308Z,39.93
2023-04-20T17:05:55.647Z,45.96
2023-04-20T17:09:07.324Z,43.97
2023-04-20T17:12:15.948Z,41.71
2023-04-20T17:15:22.867Z,44.55
2023-04-20T17:18:29.052Z,43.56
2023-04-20T17:21:35.887Z,42.32
2023-04-20T17:24:41.851Z,44.58
2023-04-20T17:27:52.100Z,49.95
2023-04-20T17:30:59.873Z,47.11
2023-04-20T17:34:07.364Z,48.78
2023-04-20T17:37:13.306Z,52.04
2023-04-20T17:40:20.194Z,59.77
2023-04-20T17:43:40.673Z,62.67
2023-04-20T17:46:47.511Z,64.33
2023-04-20T17:49:53.878Z,68.08
2023-04-20T17:53:11.268Z,70.62
2023-04-20T17:56:17.278Z,75.22
2023-04-20T17:59:32.529Z,76.25
2023-04-20T18:02:38.768Z,75.05
2023-04-20T18:05:45.716Z,80.78
2023-04-20T18:08:51.661Z,78.04
2023-04-20T18:11:58.400Z,80.43
2023-04-20T18:15:09.183Z,81.28
2023-04-20T18:18:22.437Z,82.49
2023-04-20T18:21:29.934Z,82.04
2023-04-20T18:24:36.985Z,79.90
2023-04-20T18:27:42.921Z,76.45
2023-04-20T18:30:59.024Z,75.68
2023-04-20T18:34:17.126Z,76.96
2023-04-20T18:37:24.094Z,76.69
2023-04-20T18:40:30.064Z,78.25
2023-04-20T18:43:39.178Z,83.85
2023-04-20T18:46:48.260Z,91.50
2023-04-20T18:49:55.239Z,102.98
2023-04-20T18:53:01.120Z,113.94
2023-04-20T18:56:10.161Z,116.24
2023-04-20T18:59:16.445Z,110.95
2023-04-20T19:02:27.287Z,109.03
2023-04-20T19:05:33.401Z,99.97
2023-04-20T19:08:40.249Z,96.64
2023-04-20T19:11:46.513Z,98.76
2023-04-20T19:15:04.469Z,103.88
2023-04-20T19:18:13.179Z,118.19
2023-04-20T19:21:32.415Z,135.95
2023-04-20T19:24:38.567Z,135.47
2023-04-20T19:27:45.606Z,157.29
2023-04-20T19:30:51.877Z,169.25
2023-04-20T19:34:01.247Z,191.70
2023-04-20T19:37:09.316Z,191.45
2023-04-20T19:40:16.584Z,221.34
2023-04-20T19:43:25.057Z,221.11
2023-04-20T19:46:36.307Z,217.50
2023-04-20T19:49:44.995Z,210.89
2023-04-20T19:52:51.790Z,212.78
2023-04-20T19:55:57.931Z,214.57
2023-04-20T19:59:05.031Z,230.47
2023-04-20T20:02:11.221Z,244.10
2023-04-20T20:05:21.107Z,231.12
2023-04-20T20:08:27.127Z,233.28
2023-04-20T20:11:33.854Z,265.62
2023-04-20T20:14:40.079Z,268.46
2023-04-20T20:17:48.032Z,234.48
2023-04-20T20:20:56.627Z,252.77
2023-04-20T20:24:03.379Z,267.73
2023-04-20T20:27:09.526Z,260.22
2023-04-20T20:30:19.485Z,253.08
2023-04-20T20:33:26.372Z,241.76
2023-04-20T20:36:36.394Z,236.22
2023-04-20T20:39:43.340Z,221.69
2023-04-20T20:42:50.804Z,226.49
2023-04-20T20:45:56.750Z,228.73
2023-04-20T20:49:03.548Z,239.29
2023-04-20T20:52:12.410Z,248.19
2023-04-20T20:55:19.642Z,234.24
2023-04-20T20:58:25.693Z,225.37
2023-04-20T21:01:46.940Z,235.33
2023-04-20T21:05:10.228Z,229.91
2023-04-20T21:08:20.404Z,232.62
2023-04-20T21:11:26.764Z,225.13
2023-04-20T21:14:33.557Z,224.42
2023-04-20T21:17:39.695Z,217.13
2023-04-20T21:20:46.625Z,223.68
2023-04-20T21:23:55.894Z,231.33
2023-04-20T21:27:03.221Z,264.55
2023-04-20T21:30:10.770Z,236.27
2023-04-20T21:33:17.763Z,218.12
2023-04-20T21:36:31.217Z,204.53
2023-04-20T21:39:40.757Z,199.45
2023-04-20T21:42:49.436Z,201.99
2023-04-20T21:45:56.274Z,188.87
2023-04-20T21:49:02.860Z,180.41
2023-04-20T21:52:12.655Z,189.87
2023-04-20T21:55:21.218Z,200.68
2023-04-20T21:58:28.047Z,209.63
2023-04-20T22:01:34.197Z,245.79
2023-04-20T22:04:41.657Z,280.05
2023-04-20T22:07:48.190Z,264.21
2023-04-20T22:10:59.918Z,252.22
2023-04-20T22:14:06.273Z,227.22
2023-04-20T22:17:14.762Z,255.24
2023-04-20T22:20:21.014Z,289.67
2023-04-20T22:23:27.842Z,229.46
2023-04-20T22:26:36.517Z,199.51
2023-04-20T22:29:43.330Z,187.74
2023-04-20T22:32:49.391Z,191.98
2023-04-20T22:35:56.254Z,182.20
2023-04-20T22:39:02.325Z,176.52
2023-04-20T22:42:11.814Z,183.89
2023-04-20T22:45:20.534Z,203.70
2023-04-20T22:48:27.431Z,194.34
2023-04-20T22:51:33.440Z,174.79
2023-04-20T22:54:40.743Z,164.50
2023-04-20T22:57:49.302Z,159.26
2023-04-20T23:00:56.129Z,173.50
2023-04-20T23:04:02.235Z,174.05
2023-04-20T23:07:11.947Z,172.62
2023-04-20T23:10:19.449Z,174.81
2023-04-20T23:13:29.141Z,181.92
2023-04-20T23:16:35.360Z,187.83
2023-04-20T23:19:42.175Z,177.02
2023-04-20T23:22:48.009Z,175.44
2023-04-20T23:26:01.359Z,171.55
2023-04-20T23:29:21.359Z,171.47
2023-04-20T23:32:29.955Z,177.33
2023-04-20T23:35:38.969Z,179.26
2023-04-20T23:38:46.802Z,180.49
2023-04-20T23:41:52.700Z,177.04
2023-04-20T23:45:02.086Z,187.27
2023-04-20T23:48:17.979Z,183.53
2023-04-20T23:51:24.919Z,202.53
2023-04-20T23:54:33.101Z,209.40
2023-04-20T23:57:40.277Z,218.34
